createdAt,value
2017-12-15T00:01:15.897Z,2.50
2017-12-15T00:03:42.158Z,2.00
2017-12-15T00:06:09.060Z,2.00
2017-12-15T00:08:35.327Z,2.10
2017-12-15T00:11:02.307Z,2.30
2017-12-15T00:13:28.465Z,1.90
2017-12-15T00:15:54.682Z,2.27
2017-12-15T00:18:20.926Z,2.10
2017-12-15T00:20:47.125Z,2.70
2017-12-15T00:23:13.322Z,2.60
2017-12-15T00:25:40.297Z,2.57
2017-12-15T00:28:06.512Z,2.77
2017-12-15T00:30:32.676Z,2.70
2017-12-15T00:32:58.921Z,2.13
2017-12-15T00:35:25.884Z,2.57
2017-12-15T00:37:52.849Z,3.10
2017-12-15T00:40:19.063Z,2.67
2017-12-15T00:42:46.034Z,2.43
2017-12-15T00:45:12.270Z,2.23
2017-12-15T00:47:38.522Z,2.17
2017-12-15T00:50:04.687Z,2.00
2017-12-15T00:52:31.631Z,1.80
2017-12-15T00:54:57.812Z,2.37
2017-12-15T00:57:24.012Z,2.10
2017-12-15T00:59:50.261Z,2.13
2017-12-15T01:02:16.510Z,2.03
2017-12-15T01:04:42.679Z,2.00
2017-12-15T01:07:09.683Z,2.10
2017-12-15T01:09:35.935Z,1.90
2017-12-15T01:12:02.167Z,2.20
2017-12-15T01:14:29.135Z,2.00
2017-12-15T01:16:56.096Z,2.07
2017-12-15T01:19:22.318Z,2.20
2017-12-15T01:21:48.528Z,2.00
2017-12-15T01:24:14.696Z,1.97
2017-12-15T01:26:40.862Z,2.10
2017-12-15T01:29:07.040Z,2.20
2017-12-15T01:31:33.299Z,1.80
2017-12-15T01:33:59.535Z,2.00
2017-12-15T01:36:25.729Z,1.73
2017-12-15T01:38:51.907Z,1.60
2017-12-15T01:41:18.082Z,1.80
2017-12-15T01:43:44.337Z,2.03
2017-12-15T01:46:10.509Z,1.87
2017-12-15T01:48:37.471Z,2.17
2017-12-15T01:51:04.438Z,2.03
2017-12-15T01:53:30.586Z,2.23
2017-12-15T01:55:56.793Z,1.83
2017-12-15T01:58:30.035Z,2.20
2017-12-15T02:00:56.247Z,2.27
2017-12-15T02:03:29.507Z,2.33
2017-12-15T02:05:55.750Z,2.40
2017-12-15T02:08:21.955Z,2.37
2017-12-15T02:10:48.244Z,2.20
2017-12-15T02:13:15.188Z,3.10
2017-12-15T02:15:42.111Z,2.43
2017-12-15T02:18:08.263Z,2.30
2017-12-15T02:20:34.510Z,2.40
2017-12-15T02:23:01.465Z,2.50
2017-12-15T02:25:27.700Z,2.53
2017-12-15T02:27:53.879Z,3.10
2017-12-15T02:30:20.066Z,2.93
2017-12-15T02:32:46.343Z,2.90
2017-12-15T02:35:12.554Z,2.40
2017-12-15T02:37:38.717Z,3.97
2017-12-15T02:40:05.648Z,3.63
2017-12-15T02:42:32.567Z,3.20
2017-12-15T02:44:58.731Z,3.70
2017-12-15T02:47:25.711Z,4.20
2017-12-15T02:49:51.889Z,4.23
2017-12-15T02:52:18.054Z,4.53
2017-12-15T02:54:44.185Z,4.43
2017-12-15T02:57:10.398Z,3.60
2017-12-15T02:59:37.347Z,4.30
2017-12-15T03:02:03.575Z,3.57
2017-12-15T03:04:30.018Z,4.97
2017-12-15T03:06:56.215Z,4.20
2017-12-15T03:09:23.161Z,5.00
2017-12-15T03:11:50.128Z,3.80
2017-12-15T03:14:16.385Z,3.50
2017-12-15T03:16:42.541Z,3.90
2017-12-15T03:19:15.667Z,3.57
2017-12-15T03:21:41.800Z,3.60
2017-12-15T03:24:08.026Z,2.60
2017-12-15T03:26:34.214Z,2.80
2017-12-15T03:29:01.120Z,2.63
2017-12-15T03:31:27.308Z,2.80
2017-12-15T03:33:54.295Z,2.50
2017-12-15T03:36:20.556Z,3.33
2017-12-15T03:38:46.747Z,2.77
2017-12-15T03:41:12.983Z,2.50
2017-12-15T03:43:39.167Z,2.43
2017-12-15T03:46:06.126Z,2.47
2017-12-15T03:48:32.365Z,3.20
2017-12-15T03:50:58.563Z,2.53
2017-12-15T03:53:24.763Z,3.00
2017-12-15T03:55:50.922Z,2.30
2017-12-15T03:58:17.869Z,3.03
2017-12-15T04:00:44.892Z,3.17
2017-12-15T04:03:11.121Z,2.90
2017-12-15T04:05:37.309Z,3.03
2017-12-15T04:08:03.468Z,2.37
2017-12-15T04:10:29.717Z,1.67
2017-12-15T04:13:03.659Z,1.70
2017-12-15T04:15:29.928Z,2.17
2017-12-15T04:17:56.065Z,2.20
2017-12-15T04:20:22.263Z,2.10
2017-12-15T04:22:48.563Z,1.47
2017-12-15T04:25:21.695Z,1.80
2017-12-15T04:27:47.892Z,1.53
2017-12-15T04:30:14.081Z,1.63
2017-12-15T04:32:41.040Z,1.00
2017-12-15T04:35:08.012Z,1.30
2017-12-15T04:37:34.287Z,0.87
2017-12-15T04:40:00.467Z,1.93
2017-12-15T04:42:26.670Z,3.03
2017-12-15T04:44:53.627Z,5.50
2017-12-15T04:47:20.586Z,0.83
2017-12-15T04:49:46.799Z,1.00
2017-12-15T04:52:13.791Z,1.23
2017-12-15T04:54:40.009Z,1.20
2017-12-15T04:57:06.192Z,0.80
2017-12-15T04:59:33.166Z,1.17
2017-12-15T05:01:59.361Z,0.97
2017-12-15T05:04:26.309Z,1.00
2017-12-15T05:06:53.248Z,0.87
2017-12-15T05:09:20.178Z,1.00
2017-12-15T05:11:47.155Z,1.00
2017-12-15T05:14:13.391Z,0.70
2017-12-15T05:16:39.534Z,0.70
2017-12-15T05:19:05.716Z,0.80
2017-12-15T05:21:32.690Z,0.80
2017-12-15T05:23:58.901Z,1.20
2017-12-15T05:26:25.792Z,1.10
2017-12-15T05:28:51.998Z,0.90
2017-12-15T05:31:18.223Z,1.00
2017-12-15T05:33:44.497Z,1.00
2017-12-15T05:36:10.751Z,1.00
2017-12-15T05:38:37.647Z,1.20
2017-12-15T05:41:03.857Z,1.00
2017-12-15T05:43:30.068Z,1.07
2017-12-15T05:45:57.191Z,1.10
2017-12-15T05:48:24.350Z,0.90
2017-12-15T05:50:51.313Z,1.00
2017-12-15T05:53:18.240Z,1.07
2017-12-15T05:55:45.247Z,1.00
2017-12-15T05:58:11.550Z,1.00
2017-12-15T06:00:37.908Z,0.90
2017-12-15T06:03:05.021Z,0.93
2017-12-15T06:05:31.201Z,0.87
2017-12-15T06:07:57.447Z,1.10
2017-12-15T06:13:01.532Z,1.40
2017-12-15T06:15:27.771Z,0.90
2017-12-15T06:17:53.943Z,1.43
2017-12-15T06:20:20.827Z,0.97
2017-12-15T06:22:46.990Z,1.13
2017-12-15T06:25:13.133Z,1.20
2017-12-15T06:27:40.112Z,1.10
2017-12-15T06:30:06.325Z,1.70
2017-12-15T06:32:33.255Z,1.30
2017-12-15T06:35:00.217Z,1.30
2017-12-15T06:37:26.434Z,1.20
2017-12-15T06:39:53.370Z,1.03
2017-12-15T06:42:19.587Z,1.13
2017-12-15T06:44:45.791Z,0.80
2017-12-15T06:47:12.027Z,1.00
2017-12-15T06:49:38.247Z,1.00
2017-12-15T06:52:04.463Z,1.10
2017-12-15T06:54:30.693Z,1.20
2017-12-15T06:56:56.960Z,1.10
2017-12-15T06:59:23.897Z,1.37
2017-12-15T07:01:50.875Z,1.37
2017-12-15T07:04:17.889Z,1.10
2017-12-15T07:06:46.115Z,0.90
2017-12-15T07:09:12.329Z,1.07
2017-12-15T07:11:39.335Z,1.07
2017-12-15T07:14:05.483Z,1.10
2017-12-15T07:16:31.616Z,1.00
2017-12-15T07:18:58.591Z,1.20
2017-12-15T07:21:24.784Z,0.90
2017-12-15T07:23:51.699Z,1.30
2017-12-15T07:26:17.926Z,1.20
2017-12-15T07:28:51.169Z,1.50
2017-12-15T07:31:17.360Z,1.53
2017-12-15T07:33:43.679Z,1.77
2017-12-15T07:36:09.870Z,1.03
2017-12-15T07:38:36.115Z,1.20
2017-12-15T07:41:02.371Z,1.10
2017-12-15T07:43:28.603Z,1.13
2017-12-15T07:45:54.796Z,0.90
2017-12-15T07:48:21.065Z,1.10
2017-12-15T07:50:47.259Z,1.10
2017-12-15T07:53:13.520Z,1.13
2017-12-15T07:55:39.744Z,1.03
2017-12-15T07:58:05.901Z,1.10
2017-12-15T08:00:32.114Z,1.07
2017-12-15T08:02:58.374Z,1.10
2017-12-15T08:05:24.598Z,1.27
2017-12-15T08:07:50.792Z,1.00
2017-12-15T08:10:17.031Z,1.20
2017-12-15T08:12:44.044Z,1.20
2017-12-15T08:15:10.348Z,0.80
2017-12-15T08:17:36.590Z,1.20
2017-12-15T08:20:02.768Z,1.20
2017-12-15T08:22:29.692Z,1.47
2017-12-15T08:24:56.666Z,1.20
2017-12-15T08:27:23.680Z,1.27
2017-12-15T08:29:49.843Z,1.23
2017-12-15T08:32:16.757Z,1.30
2017-12-15T08:34:42.989Z,1.37
2017-12-15T08:37:09.910Z,1.10
2017-12-15T08:39:36.127Z,1.10
2017-12-15T08:42:02.321Z,1.57
2017-12-15T08:44:29.321Z,1.50
2017-12-15T08:46:55.547Z,1.20
2017-12-15T08:49:21.818Z,1.33
2017-12-15T08:51:48.803Z,1.40
2017-12-15T08:54:14.972Z,1.73
2017-12-15T08:56:41.934Z,1.40
2017-12-15T08:59:08.926Z,1.33
2017-12-15T09:01:35.139Z,1.33
2017-12-15T09:04:07.472Z,1.43
2017-12-15T09:06:34.410Z,1.70
2017-12-15T09:09:01.351Z,1.80
2017-12-15T09:11:28.329Z,1.70
2017-12-15T09:13:54.538Z,1.30
2017-12-15T09:16:21.514Z,1.90
2017-12-15T09:18:47.791Z,1.63
2017-12-15T09:21:14.031Z,1.60
2017-12-15T09:23:40.145Z,1.50
2017-12-15T09:26:06.324Z,1.77
2017-12-15T09:28:32.473Z,1.30
2017-12-15T09:30:58.736Z,1.70
2017-12-15T09:33:25.713Z,1.50
2017-12-15T09:35:51.944Z,1.43
2017-12-15T09:38:18.187Z,1.60
2017-12-15T09:40:44.420Z,1.40
2017-12-15T09:43:10.659Z,1.10
2017-12-15T09:45:36.866Z,1.20
2017-12-15T09:48:03.111Z,1.40
2017-12-15T09:50:29.363Z,1.40
2017-12-15T09:52:55.574Z,1.50
2017-12-15T09:55:21.787Z,1.30
2017-12-15T09:57:47.975Z,1.03
2017-12-15T10:00:14.956Z,1.13
2017-12-15T10:02:41.161Z,1.40
2017-12-15T10:05:15.191Z,1.30
2017-12-15T10:07:41.402Z,1.10
2017-12-15T10:10:07.572Z,1.60
2017-12-15T10:12:33.757Z,1.23
2017-12-15T10:15:00.679Z,1.10
2017-12-15T10:17:26.815Z,1.23
2017-12-15T10:19:53.726Z,1.27
2017-12-15T10:22:19.958Z,1.37
2017-12-15T10:24:46.131Z,1.00
2017-12-15T10:27:12.338Z,1.03
2017-12-15T10:29:39.243Z,1.67
2017-12-15T10:32:05.414Z,0.90
2017-12-15T10:34:32.351Z,0.97
2017-12-15T10:36:59.278Z,0.90
2017-12-15T10:39:25.428Z,1.23
2017-12-15T10:41:52.323Z,1.27
2017-12-15T10:44:18.500Z,1.60
2017-12-15T10:46:45.416Z,0.83
2017-12-15T10:49:11.657Z,1.03
2017-12-15T10:51:37.839Z,1.00
2017-12-15T10:54:04.027Z,1.00
2017-12-15T10:56:31.017Z,0.97
2017-12-15T10:58:57.264Z,1.37
2017-12-15T11:01:23.445Z,0.90
2017-12-15T11:03:50.376Z,0.80
2017-12-15T11:06:17.299Z,0.70
2017-12-15T11:08:44.232Z,0.80
2017-12-15T11:11:10.414Z,0.80
2017-12-15T11:13:36.560Z,1.13
2017-12-15T11:16:02.798Z,0.80
2017-12-15T11:18:29.009Z,0.80
2017-12-15T11:20:55.232Z,0.80
2017-12-15T11:23:21.396Z,0.90
2017-12-15T11:25:47.637Z,1.03
2017-12-15T11:28:13.827Z,0.80
2017-12-15T11:30:40.034Z,1.43
2017-12-15T11:33:06.264Z,0.90
2017-12-15T11:35:32.440Z,0.83
2017-12-15T11:37:58.659Z,0.80
2017-12-15T11:40:24.958Z,1.00
2017-12-15T11:42:51.175Z,1.10
2017-12-15T11:45:17.430Z,0.83
2017-12-15T11:47:43.656Z,1.00
2017-12-15T11:50:09.898Z,0.90
2017-12-15T11:52:36.086Z,0.80
2017-12-15T11:55:02.249Z,0.80
2017-12-15T11:57:28.459Z,0.80
2017-12-15T11:59:54.660Z,0.90
2017-12-15T12:02:21.612Z,0.70
2017-12-15T12:04:48.577Z,0.90
2017-12-15T12:07:14.916Z,1.00
2017-12-15T12:09:41.184Z,1.10
2017-12-15T12:12:08.140Z,0.87
2017-12-15T12:14:34.392Z,1.60
2017-12-15T12:17:00.650Z,0.90
2017-12-15T12:19:26.834Z,1.10
2017-12-15T12:21:53.757Z,1.13
2017-12-15T12:24:19.988Z,1.10
2017-12-15T12:26:46.908Z,1.10
2017-12-15T12:29:13.246Z,1.07
2017-12-15T12:31:39.552Z,1.23
2017-12-15T12:34:05.781Z,2.47
2017-12-15T12:36:33.778Z,1.37
2017-12-15T12:39:00.020Z,2.47
2017-12-15T12:41:26.969Z,2.73
2017-12-15T12:43:53.135Z,1.17
2017-12-15T12:46:19.355Z,1.10
2017-12-15T12:48:46.275Z,1.23
2017-12-15T12:51:12.444Z,1.20
2017-12-15T12:53:38.706Z,1.60
2017-12-15T12:56:04.887Z,1.23
2017-12-15T12:58:31.849Z,1.67
2017-12-15T13:00:58.086Z,5.53
2017-12-15T13:03:24.337Z,4.90
2017-12-15T13:05:50.601Z,3.40
2017-12-15T13:08:17.566Z,6.07
2017-12-15T13:10:43.793Z,3.53
2017-12-15T13:13:10.045Z,2.83
2017-12-15T13:15:36.249Z,2.23
2017-12-15T13:18:02.479Z,2.90
2017-12-15T13:20:28.685Z,1.70
2017-12-15T13:22:55.699Z,1.73
2017-12-15T13:25:21.874Z,2.30
2017-12-15T13:27:48.894Z,1.17
2017-12-15T13:30:15.076Z,1.00
2017-12-15T13:32:41.356Z,2.20
2017-12-15T13:35:08.280Z,1.10
2017-12-15T13:37:34.546Z,2.10
2017-12-15T13:40:01.519Z,1.67
2017-12-15T13:42:27.702Z,1.13
2017-12-15T13:44:54.621Z,1.23
2017-12-15T13:47:20.812Z,1.33
2017-12-15T13:49:47.019Z,1.30
2017-12-15T13:52:14.046Z,1.53
2017-12-15T13:54:40.192Z,1.60
2017-12-15T13:57:07.108Z,1.17
2017-12-15T13:59:33.319Z,3.40
2017-12-15T14:01:59.603Z,2.33
2017-12-15T14:04:26.514Z,1.83
2017-12-15T14:06:53.444Z,3.00
2017-12-15T14:09:20.462Z,7.00
2017-12-15T14:11:46.700Z,1.63
2017-12-15T14:14:12.955Z,1.97
2017-12-15T14:16:39.079Z,2.00
2017-12-15T14:19:05.287Z,3.30
2017-12-15T14:21:31.551Z,8.63
2017-12-15T14:23:57.744Z,8.57
2017-12-15T14:26:23.975Z,5.10
2017-12-15T14:28:50.246Z,4.03
2017-12-15T14:31:17.214Z,4.20
2017-12-15T14:33:43.329Z,6.00
2017-12-15T14:36:10.275Z,6.63
2017-12-15T14:38:37.461Z,5.50
2017-12-15T14:41:03.713Z,4.77
2017-12-15T14:43:29.962Z,4.57
2017-12-15T14:45:56.146Z,3.73
2017-12-15T14:48:22.324Z,4.53
2017-12-15T14:50:48.541Z,4.77
2017-12-15T14:53:15.638Z,3.53
2017-12-15T14:55:41.893Z,4.00
2017-12-15T14:58:08.135Z,4.07
2017-12-15T15:00:34.354Z,4.53
2017-12-15T15:03:00.619Z,4.93
2017-12-15T15:05:27.624Z,5.23
2017-12-15T15:07:53.858Z,4.90
2017-12-15T15:10:20.131Z,4.50
2017-12-15T15:12:47.089Z,4.20
2017-12-15T15:15:13.312Z,4.43
2017-12-15T15:17:40.226Z,4.80
2017-12-15T15:20:06.465Z,1.63
2017-12-15T15:22:33.370Z,1.47
2017-12-15T15:24:59.570Z,1.27
2017-12-15T15:29:59.473Z,1.20
2017-12-15T15:32:26.438Z,1.50
2017-12-15T15:34:52.661Z,1.00
2017-12-15T15:37:18.929Z,1.00
2017-12-15T15:39:45.197Z,1.10
2017-12-15T15:42:12.158Z,1.40
2017-12-15T15:44:40.117Z,1.00
2017-12-15T15:47:06.331Z,0.87
2017-12-15T15:49:32.569Z,1.40
2017-12-15T15:51:59.511Z,0.90
2017-12-15T15:54:25.793Z,0.90
2017-12-15T15:56:51.957Z,0.60
2017-12-15T15:59:19.036Z,0.70
2017-12-15T16:01:46.027Z,0.70
2017-12-15T16:04:12.282Z,0.67
2017-12-15T16:06:39.327Z,0.77
2017-12-15T16:09:05.973Z,0.80
2017-12-15T16:11:32.938Z,1.00
2017-12-15T16:13:59.926Z,1.00
2017-12-15T16:16:26.181Z,0.80
2017-12-15T16:18:52.387Z,1.30
2017-12-15T16:21:18.611Z,1.87
2017-12-15T16:23:44.876Z,1.40
2017-12-15T16:26:11.825Z,1.10
2017-12-15T16:28:38.011Z,1.10
2017-12-15T16:31:04.243Z,1.03
2017-12-15T16:33:30.495Z,1.27
2017-12-15T16:35:56.781Z,1.50
2017-12-15T16:38:22.956Z,0.97
2017-12-15T16:40:49.208Z,1.20
2017-12-15T16:43:15.431Z,1.10
2017-12-15T16:45:42.615Z,1.37
2017-12-15T16:48:08.828Z,1.77
2017-12-15T16:50:35.029Z,1.70
2017-12-15T16:53:01.271Z,1.40
2017-12-15T16:55:28.334Z,1.40
2017-12-15T16:57:54.607Z,1.13
2017-12-15T17:00:20.884Z,1.37
2017-12-15T17:02:47.814Z,1.43
2017-12-15T17:05:14.809Z,1.30
2017-12-15T17:07:41.176Z,1.33
2017-12-15T17:10:07.446Z,1.87
2017-12-15T17:12:33.759Z,1.37
2017-12-15T17:15:00.735Z,1.80
2017-12-15T17:17:26.932Z,2.00
2017-12-15T17:19:53.907Z,1.93
2017-12-15T17:22:20.139Z,2.30
2017-12-15T17:24:46.445Z,1.90
2017-12-15T17:27:13.449Z,1.93
2017-12-15T17:29:39.640Z,2.00
2017-12-15T17:32:05.844Z,2.50
2017-12-15T17:34:39.895Z,5.70
2017-12-15T17:37:06.124Z,9.27
2017-12-15T17:39:32.376Z,4.60
2017-12-15T17:41:58.614Z,4.20
2017-12-15T17:44:24.851Z,4.90
2017-12-15T17:46:51.073Z,3.83
2017-12-15T17:49:17.338Z,7.33
2017-12-15T17:51:44.448Z,5.80
2017-12-15T17:54:10.681Z,9.73
2017-12-15T17:56:36.910Z,7.70
2017-12-15T17:59:03.875Z,7.03
2017-12-15T18:01:30.893Z,7.33
2017-12-15T18:03:57.115Z,5.10
2017-12-15T18:06:23.334Z,3.87
2017-12-15T18:08:49.551Z,9.17
2017-12-15T18:11:15.756Z,11.87
2017-12-15T18:13:41.978Z,4.93
2017-12-15T18:16:08.246Z,4.20
2017-12-15T18:18:34.456Z,3.70
2017-12-15T18:21:00.680Z,4.40
2017-12-15T18:23:27.056Z,3.97
2017-12-15T18:25:53.711Z,2.87
2017-12-15T18:28:19.892Z,2.50
2017-12-15T18:30:46.237Z,3.93
2017-12-15T18:33:12.429Z,4.00
2017-12-15T18:35:38.697Z,4.33
2017-12-15T18:38:04.979Z,4.70
2017-12-15T18:40:31.969Z,4.50
2017-12-15T18:42:58.171Z,4.60
2017-12-15T18:51:20.928Z,5.50
2017-12-15T18:53:47.119Z,4.80
2017-12-15T18:56:14.027Z,8.50
2017-12-15T18:58:40.296Z,8.50
2017-12-15T19:01:07.279Z,10.73
2017-12-15T19:03:33.532Z,13.70
2017-12-15T19:06:00.253Z,5.63
2017-12-15T19:08:26.508Z,6.37
2017-12-15T19:10:52.693Z,8.40
2017-12-15T19:13:18.923Z,8.27
2017-12-15T19:15:45.079Z,5.03
2017-12-15T19:18:11.292Z,4.80
2017-12-15T19:20:37.562Z,5.20
2017-12-15T19:23:03.795Z,5.43
2017-12-15T19:25:30.756Z,5.47
2017-12-15T19:27:57.765Z,5.10
2017-12-15T19:30:23.991Z,5.40
2017-12-15T19:32:50.195Z,5.07
2017-12-15T19:35:16.431Z,5.10
2017-12-15T19:37:42.757Z,4.33
2017-12-15T19:40:08.925Z,4.20
2017-12-15T19:42:35.175Z,4.57
2017-12-15T19:45:02.226Z,4.50
2017-12-15T19:47:28.515Z,5.87
2017-12-15T19:49:54.908Z,13.27
2017-12-15T19:52:22.001Z,16.60
2017-12-15T19:54:48.295Z,12.70
2017-12-15T19:57:14.608Z,9.80
2017-12-15T19:59:40.997Z,9.80
2017-12-15T20:02:08.288Z,8.40
2017-12-15T20:04:34.554Z,8.90
2017-12-15T20:07:00.921Z,7.40
2017-12-15T20:09:27.327Z,6.00
2017-12-15T20:11:54.439Z,5.53
2017-12-15T20:14:20.863Z,7.63
2017-12-15T20:16:47.318Z,5.73
2017-12-15T20:19:13.742Z,5.40
2017-12-15T20:21:40.121Z,4.93
2017-12-15T20:24:06.526Z,5.30
2017-12-15T20:26:32.965Z,4.63
2017-12-15T20:28:59.423Z,4.07
2017-12-15T20:31:25.798Z,3.10
2017-12-15T20:33:52.167Z,3.20
2017-12-15T20:36:19.286Z,3.63
2017-12-15T20:38:45.769Z,3.73
2017-12-15T20:41:12.310Z,5.33
2017-12-15T20:43:38.769Z,4.07
2017-12-15T20:46:05.276Z,3.80
2017-12-15T20:48:31.803Z,3.97
2017-12-15T20:50:58.260Z,3.73
2017-12-15T20:53:24.732Z,3.97
2017-12-15T20:55:51.101Z,4.07
2017-12-15T20:58:18.242Z,5.00
2017-12-15T21:00:45.393Z,3.70
2017-12-15T21:03:11.943Z,4.30
2017-12-15T21:05:38.216Z,4.40
2017-12-15T21:08:04.525Z,4.67
2017-12-15T21:10:30.777Z,7.53
2017-12-15T21:12:57.227Z,5.83
2017-12-15T21:15:23.524Z,6.63
2017-12-15T21:17:49.741Z,6.60
2017-12-15T21:20:16.710Z,5.67
2017-12-15T21:22:42.907Z,4.70
2017-12-15T21:25:09.913Z,6.23
2017-12-15T21:27:36.166Z,5.03
2017-12-15T21:30:02.363Z,4.70
2017-12-15T21:32:28.599Z,5.70
2017-12-15T21:34:54.761Z,6.07
2017-12-15T21:37:20.914Z,5.10
2017-12-15T21:39:47.189Z,5.10
2017-12-15T21:42:13.408Z,4.93
2017-12-15T21:44:39.612Z,5.00
2017-12-15T21:47:05.879Z,5.37
2017-12-15T21:49:32.055Z,5.70
2017-12-15T21:51:59.023Z,5.37
2017-12-15T21:54:25.214Z,4.90
2017-12-15T21:56:51.389Z,4.90
2017-12-15T21:59:17.638Z,4.60
2017-12-15T22:01:44.274Z,4.83
2017-12-15T22:04:10.468Z,5.47
2017-12-15T22:06:36.713Z,4.57
2017-12-15T22:09:02.942Z,5.27
2017-12-15T22:11:29.163Z,4.77
2017-12-15T22:13:55.407Z,6.33
2017-12-15T22:16:21.628Z,5.23
2017-12-15T22:18:47.771Z,4.80
2017-12-15T22:21:14.004Z,4.87
2017-12-15T22:23:40.239Z,4.77
2017-12-15T22:26:06.442Z,5.20
2017-12-15T22:28:32.675Z,4.77
2017-12-15T22:30:58.897Z,5.27
2017-12-15T22:33:25.073Z,5.80
2017-12-15T22:35:51.274Z,6.23
2017-12-15T22:38:17.397Z,7.10
2017-12-15T22:40:43.582Z,6.67
2017-12-15T22:43:09.776Z,6.10
2017-12-15T22:45:36.708Z,5.53
2017-12-15T22:48:02.928Z,5.30
2017-12-15T22:50:29.163Z,5.40
2017-12-15T22:52:55.393Z,5.50
2017-12-15T22:55:21.590Z,5.90
2017-12-15T22:57:48.549Z,6.20
2017-12-15T23:00:14.747Z,6.17
2017-12-15T23:02:40.919Z,5.90
2017-12-15T23:05:07.059Z,7.57
2017-12-15T23:07:33.256Z,7.03
2017-12-15T23:09:59.431Z,7.53
2017-12-15T23:12:26.384Z,8.90
2017-12-15T23:14:52.545Z,8.50
2017-12-15T23:17:18.753Z,8.20
2017-12-15T23:19:44.912Z,7.93
2017-12-15T23:22:11.122Z,7.70
2017-12-15T23:24:37.387Z,7.80
2017-12-15T23:27:03.552Z,7.37
2017-12-15T23:29:29.702Z,7.80
2017-12-15T23:31:55.931Z,9.00
2017-12-15T23:34:22.122Z,11.90
2017-12-15T23:36:49.036Z,11.73
2017-12-15T23:39:15.227Z,9.23
2017-12-15T23:41:41.431Z,9.40
2017-12-15T23:44:07.683Z,7.67
2017-12-15T23:46:33.900Z,7.10
2017-12-15T23:49:00.053Z,6.80
2017-12-15T23:51:26.224Z,6.27
2017-12-15T23:53:53.169Z,5.83
2017-12-15T23:56:32.115Z,7.50
2017-12-15T23:58:58.318Z,8.07
